createdAt,value
2023-09-30T00:02:21.148Z,61.09
2023-09-30T00:04:47.907Z,61.18
2023-09-30T00:07:15.489Z,61.09
2023-09-30T00:09:44.984Z,61.09
2023-09-30T00:12:11.789Z,61.03
2023-09-30T00:14:38.820Z,60.92
2023-09-30T00:17:05.741Z,60.95
2023-09-30T00:19:34.230Z,61.19
2023-09-30T00:22:01.427Z,60.89
2023-09-30T00:24:28.146Z,60.89
2023-09-30T00:26:55.315Z,60.97
2023-09-30T00:29:22.064Z,60.75
2023-09-30T00:31:49.047Z,60.89
2023-09-30T00:34:15.605Z,60.78
2023-09-30T00:36:42.403Z,60.78
2023-09-30T00:39:09.302Z,60.91
2023-09-30T00:41:35.906Z,60.74
2023-09-30T00:44:02.709Z,60.83
2023-09-30T00:46:36.164Z,60.75
2023-09-30T00:49:03.952Z,60.72
2023-09-30T00:51:31.974Z,61.10
2023-09-30T00:54:01.413Z,60.60
2023-09-30T00:56:29.653Z,60.78
2023-09-30T00:58:57.035Z,60.61
2023-09-30T01:01:23.830Z,60.75
2023-09-30T01:03:50.828Z,60.66
2023-09-30T01:06:17.578Z,60.88
2023-09-30T01:08:44.527Z,60.66
2023-09-30T01:11:11.431Z,60.64
2023-09-30T01:13:38.822Z,60.56
2023-09-30T01:16:11.041Z,60.58
2023-09-30T01:18:43.751Z,60.69
2023-09-30T01:21:12.031Z,60.61
2023-09-30T01:23:39.874Z,60.69
2023-09-30T01:26:16.348Z,60.72
2023-09-30T01:28:42.977Z,60.56
2023-09-30T01:31:09.511Z,60.39
2023-09-30T01:33:36.298Z,60.47
2023-09-30T01:36:02.962Z,60.58
2023-09-30T01:38:29.620Z,60.67
2023-09-30T01:40:58.835Z,60.34
2023-09-30T01:43:27.502Z,60.49
2023-09-30T01:45:54.051Z,60.29
2023-09-30T01:48:21.009Z,60.63
2023-09-30T01:50:48.950Z,60.51
2023-09-30T01:53:15.474Z,60.43
2023-09-30T01:55:42.000Z,60.30
2023-09-30T01:58:08.508Z,60.52
2023-09-30T02:00:36.492Z,60.41
2023-09-30T02:03:03.355Z,60.30
2023-09-30T02:05:29.973Z,60.38
2023-09-30T02:07:56.628Z,60.38
2023-09-30T02:10:23.333Z,60.39
2023-09-30T02:12:49.991Z,60.33
2023-09-30T02:15:17.297Z,60.31
2023-09-30T02:17:46.971Z,60.34
2023-09-30T02:20:17.287Z,60.50
2023-09-30T02:22:45.661Z,60.46
2023-09-30T02:25:13.677Z,60.23
2023-09-30T02:27:42.717Z,60.18
2023-09-30T02:30:11.714Z,60.15
2023-09-30T02:32:42.113Z,60.23
2023-09-30T02:35:12.128Z,60.15
2023-09-30T02:37:39.488Z,60.05
2023-09-30T02:40:11.188Z,60.10
2023-09-30T02:42:39.158Z,60.07
2023-09-30T02:45:10.277Z,60.22
2023-09-30T02:47:38.033Z,60.08
2023-09-30T02:50:07.656Z,60.28
2023-09-30T02:52:34.074Z,60.25
2023-09-30T02:55:00.734Z,60.11
2023-09-30T02:57:28.998Z,60.24
2023-09-30T02:59:55.761Z,60.24
2023-09-30T03:02:22.776Z,60.09
2023-09-30T03:04:52.228Z,60.12
2023-09-30T03:07:22.238Z,60.05
2023-09-30T03:09:48.911Z,60.02
2023-09-30T03:12:15.728Z,60.09
2023-09-30T03:14:42.302Z,60.23
2023-09-30T03:17:13.063Z,60.10
2023-09-30T03:19:40.250Z,60.10
2023-09-30T03:22:07.868Z,60.28
2023-09-30T03:24:36.194Z,59.95
2023-09-30T03:27:02.858Z,59.95
2023-09-30T03:29:29.798Z,60.00
2023-09-30T03:31:56.407Z,60.03
2023-09-30T03:34:24.009Z,60.00
2023-09-30T03:36:50.632Z,59.99
2023-09-30T03:39:18.624Z,60.19
2023-09-30T03:41:45.549Z,60.11
2023-09-30T03:44:15.131Z,59.96
2023-09-30T03:46:41.739Z,59.90
2023-09-30T03:49:09.637Z,59.91
2023-09-30T03:51:38.425Z,59.96
2023-09-30T03:54:05.341Z,59.92
2023-09-30T03:56:32.272Z,59.95
2023-09-30T03:58:59.628Z,59.87
2023-09-30T04:01:27.900Z,59.78
2023-09-30T04:03:57.642Z,59.89
2023-09-30T04:06:24.510Z,59.93
2023-09-30T04:08:52.530Z,59.99
2023-09-30T04:11:23.344Z,59.86
2023-09-30T04:13:51.125Z,59.92
2023-09-30T04:16:19.886Z,59.96
2023-09-30T04:18:47.323Z,59.91
2023-09-30T04:21:13.848Z,59.68
2023-09-30T04:23:40.603Z,59.92
2023-09-30T04:26:10.859Z,60.00
2023-09-30T04:28:37.568Z,59.90
2023-09-30T04:31:04.516Z,59.91
2023-09-30T04:33:31.233Z,59.70
2023-09-30T04:35:58.432Z,59.70
2023-09-30T04:38:25.757Z,59.97
2023-09-30T04:40:52.928Z,59.83
2023-09-30T04:43:19.435Z,59.79
2023-09-30T04:45:46.520Z,59.62
2023-09-30T04:48:13.490Z,59.74
2023-09-30T04:50:43.182Z,59.90
2023-09-30T04:53:10.146Z,59.87
2023-09-30T04:55:38.649Z,59.66
2023-09-30T04:58:06.254Z,59.85
2023-09-30T05:00:33.158Z,59.82
2023-09-30T05:03:09.898Z,59.85
2023-09-30T05:05:39.472Z,59.73
2023-09-30T05:08:07.245Z,59.81
2023-09-30T05:10:34.616Z,59.74
2023-09-30T05:13:01.161Z,59.71
2023-09-30T05:15:30.414Z,59.72
2023-09-30T05:17:57.156Z,59.61
2023-09-30T05:20:24.108Z,59.74
2023-09-30T05:22:50.864Z,59.43
2023-09-30T05:25:19.174Z,59.76
2023-09-30T05:27:48.953Z,59.98
2023-09-30T05:30:17.238Z,59.73
2023-09-30T05:32:43.999Z,59.72
2023-09-30T05:35:14.234Z,59.59
2023-09-30T05:37:41.923Z,59.72
2023-09-30T05:40:17.698Z,59.69
2023-09-30T05:42:45.618Z,59.77
2023-09-30T05:45:16.767Z,59.81
2023-09-30T05:47:43.460Z,59.58
2023-09-30T05:50:10.507Z,59.79
2023-09-30T05:52:38.554Z,59.36
2023-09-30T05:55:05.905Z,59.55
2023-09-30T05:57:36.182Z,59.70
2023-09-30T06:00:21.532Z,59.70
2023-09-30T06:02:52.875Z,59.84
2023-09-30T06:05:19.996Z,59.72
2023-09-30T06:07:52.826Z,59.73
2023-09-30T06:10:19.959Z,59.55
2023-09-30T06:12:51.135Z,59.69
2023-09-30T06:15:23.430Z,59.75
2023-09-30T06:17:50.997Z,59.64
2023-09-30T06:20:19.046Z,59.49
2023-09-30T06:22:50.501Z,59.17
2023-09-30T06:25:18.245Z,59.43
2023-09-30T06:27:49.221Z,59.47
2023-09-30T06:30:23.126Z,59.70
2023-09-30T06:32:50.412Z,59.47
2023-09-30T06:35:17.217Z,59.72
2023-09-30T06:37:44.413Z,59.58
2023-09-30T06:40:14.935Z,59.61
2023-09-30T06:42:41.902Z,59.51
2023-09-30T06:45:11.390Z,59.51
2023-09-30T06:47:39.280Z,59.56
2023-09-30T06:50:13.766Z,59.75
2023-09-30T06:52:46.400Z,59.49
2023-09-30T06:55:15.917Z,59.72
2023-09-30T06:57:42.462Z,59.70
2023-09-30T07:00:15.429Z,59.58
2023-09-30T07:02:42.775Z,59.57
2023-09-30T07:05:10.911Z,59.63
2023-09-30T07:07:37.980Z,59.63
2023-09-30T07:10:06.025Z,59.76
2023-09-30T07:12:32.893Z,59.42
2023-09-30T07:15:00.149Z,59.50
2023-09-30T07:17:26.806Z,59.84
2023-09-30T07:19:53.449Z,59.42
2023-09-30T07:22:29.852Z,59.56
2023-09-30T07:25:01.103Z,59.39
2023-09-30T07:27:28.659Z,59.63
2023-09-30T07:29:55.727Z,59.62
2023-09-30T07:32:24.806Z,59.77
2023-09-30T07:34:53.222Z,59.42
2023-09-30T07:37:21.594Z,59.80
2023-09-30T07:39:48.488Z,59.65
2023-09-30T07:42:15.154Z,59.48
2023-09-30T07:44:42.120Z,59.61
2023-09-30T07:47:09.921Z,59.84
2023-09-30T07:49:36.579Z,59.46
2023-09-30T07:52:03.060Z,59.76
2023-09-30T07:54:32.128Z,59.70
2023-09-30T07:57:00.426Z,59.60
2023-09-30T07:59:27.973Z,59.60
2023-09-30T08:01:54.974Z,59.59
2023-09-30T08:04:22.321Z,59.79
2023-09-30T08:06:50.380Z,59.70
2023-09-30T08:09:17.740Z,59.54
2023-09-30T08:11:47.448Z,59.82
2023-09-30T08:14:14.009Z,59.55
2023-09-30T08:16:41.542Z,59.62
2023-09-30T08:19:08.447Z,59.85
2023-09-30T08:21:35.122Z,59.92
2023-09-30T08:24:06.550Z,59.65
2023-09-30T08:26:34.305Z,59.48
2023-09-30T08:29:00.812Z,59.64
2023-09-30T08:31:27.547Z,59.83
2023-09-30T08:33:54.128Z,59.83
2023-09-30T08:36:20.650Z,59.70
2023-09-30T08:38:47.663Z,59.93
2023-09-30T08:41:31.702Z,59.38
2023-09-30T08:44:03.809Z,59.46
2023-09-30T08:46:35.807Z,59.72
2023-09-30T08:49:04.566Z,59.80
2023-09-30T08:51:32.168Z,59.72
2023-09-30T08:53:59.838Z,59.84
2023-09-30T08:56:29.669Z,59.91
2023-09-30T08:59:00.276Z,59.90
2023-09-30T09:01:31.477Z,59.81
2023-09-30T09:03:59.101Z,59.84
2023-09-30T09:06:27.343Z,59.77
2023-09-30T09:08:54.607Z,59.90
2023-09-30T09:11:21.265Z,59.92
2023-09-30T09:13:56.744Z,59.91
2023-09-30T09:16:24.748Z,60.18
2023-09-30T09:18:52.420Z,59.88
2023-09-30T09:21:22.415Z,60.03
2023-09-30T09:23:50.548Z,59.90
2023-09-30T09:26:31.427Z,60.00
2023-09-30T09:29:02.052Z,60.07
2023-09-30T09:31:30.374Z,60.29
2023-09-30T09:33:57.489Z,60.55
2023-09-30T09:36:42.857Z,60.72
2023-09-30T09:39:09.905Z,60.61
2023-09-30T09:41:51.738Z,60.76
2023-09-30T09:44:22.891Z,60.69
2023-09-30T09:46:51.367Z,60.74
2023-09-30T09:49:19.675Z,60.82
2023-09-30T09:51:47.950Z,61.01
2023-09-30T09:54:15.983Z,60.94
2023-09-30T09:56:45.132Z,61.04
2023-09-30T09:59:13.429Z,61.15
2023-09-30T10:01:42.574Z,61.29
2023-09-30T10:04:12.230Z,61.25
2023-09-30T10:06:41.816Z,61.28
2023-09-30T10:09:11.359Z,61.43
2023-09-30T10:11:41.046Z,61.41
2023-09-30T10:14:13.339Z,61.18
2023-09-30T10:16:42.937Z,61.21
2023-09-30T10:19:19.458Z,61.19
2023-09-30T10:22:19.999Z,61.04
2023-09-30T10:24:48.316Z,60.92
2023-09-30T10:27:33.984Z,60.97
2023-09-30T10:30:14.872Z,60.83
2023-09-30T10:32:59.989Z,60.69
2023-09-30T10:35:32.751Z,60.87
2023-09-30T10:38:31.654Z,60.70
2023-09-30T10:40:58.622Z,61.00
2023-09-30T10:43:34.749Z,60.90
2023-09-30T10:46:02.390Z,60.96
2023-09-30T10:48:29.039Z,60.74
2023-09-30T10:51:22.961Z,60.85
2023-09-30T10:53:58.176Z,61.03
2023-09-30T10:56:25.465Z,60.86
2023-09-30T10:58:54.404Z,60.68
2023-09-30T11:01:25.145Z,60.65
2023-09-30T11:03:59.923Z,60.80
2023-09-30T11:06:26.994Z,60.87
2023-09-30T11:09:01.738Z,60.68
2023-09-30T11:11:35.448Z,60.77
2023-09-30T11:14:02.292Z,60.84
2023-09-30T11:16:29.399Z,60.73
2023-09-30T11:18:56.394Z,60.77
2023-09-30T11:21:23.948Z,61.05
2023-09-30T11:23:51.282Z,60.82
2023-09-30T11:26:30.378Z,60.45
2023-09-30T11:28:57.814Z,60.61
2023-09-30T11:31:24.661Z,60.73
2023-09-30T11:33:54.246Z,60.60
2023-09-30T11:36:22.910Z,60.46
2023-09-30T11:38:51.513Z,60.48
2023-09-30T11:41:21.058Z,60.62
2023-09-30T11:44:05.931Z,60.42
2023-09-30T11:46:34.786Z,60.57
2023-09-30T11:49:04.053Z,60.83
2023-09-30T11:51:33.912Z,60.70
2023-09-30T11:54:02.336Z,60.80
2023-09-30T11:56:31.723Z,60.58
2023-09-30T11:58:58.582Z,60.95
2023-09-30T12:01:26.600Z,60.76
2023-09-30T12:03:58.499Z,60.68
2023-09-30T12:06:25.631Z,60.80
2023-09-30T12:08:52.993Z,60.73
2023-09-30T12:11:20.468Z,60.52
2023-09-30T12:13:50.110Z,60.68
2023-09-30T12:16:18.060Z,60.38
2023-09-30T12:18:46.841Z,60.67
2023-09-30T12:21:21.251Z,60.86
2023-09-30T12:23:49.783Z,60.84
2023-09-30T12:26:21.182Z,60.60
2023-09-30T12:28:50.484Z,60.62
2023-09-30T12:31:17.347Z,60.78
2023-09-30T12:33:44.716Z,60.58
2023-09-30T12:36:14.252Z,60.73
2023-09-30T12:38:40.814Z,60.67
2023-09-30T12:41:09.303Z,60.60
2023-09-30T12:43:35.898Z,60.64
2023-09-30T12:46:02.588Z,60.53
2023-09-30T12:48:29.394Z,60.41
2023-09-30T12:50:55.977Z,60.46
2023-09-30T12:53:22.822Z,60.55
2023-09-30T12:55:49.396Z,60.57
2023-09-30T12:58:16.161Z,60.77
2023-09-30T13:00:42.774Z,60.55
2023-09-30T13:03:13.830Z,60.47
2023-09-30T13:05:42.423Z,60.56
2023-09-30T13:08:10.472Z,60.73
2023-09-30T13:10:39.012Z,60.71
2023-09-30T13:13:06.411Z,60.60
2023-09-30T13:15:36.717Z,60.62
2023-09-30T13:18:05.839Z,60.38
2023-09-30T13:20:32.552Z,60.69
2023-09-30T13:22:59.261Z,60.54
2023-09-30T13:25:28.286Z,60.61
2023-09-30T13:27:55.001Z,60.67
2023-09-30T13:30:22.322Z,60.54
2023-09-30T13:32:49.072Z,60.60
2023-09-30T13:35:16.095Z,60.64
2023-09-30T13:37:42.833Z,60.58
2023-09-30T13:40:13.182Z,60.61
2023-09-30T13:42:40.562Z,60.66
2023-09-30T13:45:07.894Z,60.45
2023-09-30T13:47:34.787Z,60.46
2023-09-30T13:50:02.085Z,60.46
2023-09-30T13:52:28.746Z,60.44
2023-09-30T13:54:56.728Z,60.46
2023-09-30T13:57:23.557Z,60.35
2023-09-30T13:59:50.221Z,60.34
2023-09-30T14:02:16.888Z,60.39
2023-09-30T14:04:43.649Z,60.32
2023-09-30T14:07:10.206Z,60.44
2023-09-30T14:09:37.072Z,60.39
2023-09-30T14:12:05.657Z,60.44
2023-09-30T14:14:34.420Z,60.83
2023-09-30T14:17:08.788Z,60.63
2023-09-30T14:19:36.052Z,60.45
2023-09-30T14:22:02.825Z,60.47
2023-09-30T14:24:34.510Z,60.58
2023-09-30T14:27:02.099Z,60.92
2023-09-30T14:29:29.392Z,60.87
2023-09-30T14:31:57.729Z,60.97
2023-09-30T14:34:26.266Z,60.89
2023-09-30T14:36:53.453Z,60.84
2023-09-30T14:39:20.879Z,61.09
2023-09-30T14:41:47.705Z,61.26
2023-09-30T14:44:14.368Z,61.31
2023-09-30T14:46:41.701Z,61.33
2023-09-30T14:49:10.722Z,61.37
2023-09-30T14:51:37.632Z,61.54
2023-09-30T14:54:04.669Z,61.29
2023-09-30T14:56:31.258Z,61.36
2023-09-30T14:58:58.196Z,61.27
2023-09-30T15:01:25.353Z,61.41
2023-09-30T15:03:52.626Z,61.29
2023-09-30T15:06:19.398Z,61.45
2023-09-30T15:08:45.888Z,61.25
2023-09-30T15:11:16.161Z,61.31
2023-09-30T15:13:44.681Z,61.45
2023-09-30T15:16:19.705Z,61.45
2023-09-30T15:18:48.188Z,61.65
2023-09-30T15:21:15.466Z,61.57
2023-09-30T15:23:42.547Z,61.55
2023-09-30T15:26:09.762Z,61.47
2023-09-30T15:28:38.488Z,61.54
2023-09-30T15:31:05.845Z,61.53
2023-09-30T15:33:32.557Z,61.62
2023-09-30T15:35:59.229Z,61.64
2023-09-30T15:38:25.868Z,61.78
2023-09-30T15:41:02.560Z,61.59
2023-09-30T15:43:29.161Z,61.67
2023-09-30T15:45:55.887Z,61.53
2023-09-30T15:48:22.552Z,61.77
2023-09-30T15:50:49.340Z,61.53
2023-09-30T15:53:15.942Z,61.82
2023-09-30T15:55:42.483Z,61.58
2023-09-30T15:58:11.725Z,61.57
2023-09-30T16:00:43.122Z,61.98
2023-09-30T16:03:11.373Z,61.79
2023-09-30T16:05:39.601Z,61.75
2023-09-30T16:08:08.445Z,61.71
2023-09-30T16:10:35.595Z,61.83
2023-09-30T16:13:04.605Z,61.87
2023-09-30T16:15:31.690Z,61.83
2023-09-30T16:17:59.694Z,61.92
2023-09-30T16:20:26.623Z,61.77
2023-09-30T16:22:53.882Z,61.72
2023-09-30T16:25:21.297Z,61.80
2023-09-30T16:27:49.682Z,62.00
2023-09-30T16:30:17.481Z,61.92
2023-09-30T16:32:44.362Z,61.94
2023-09-30T16:35:11.444Z,61.97
2023-09-30T16:37:38.822Z,62.03
2023-09-30T16:40:06.480Z,61.98
2023-09-30T16:42:34.252Z,62.22
2023-09-30T16:45:01.760Z,62.06
2023-09-30T16:47:28.561Z,62.02
2023-09-30T16:49:55.234Z,62.00
2023-09-30T16:52:22.084Z,62.02
2023-09-30T16:54:49.041Z,62.04
2023-09-30T16:57:15.760Z,62.10
2023-09-30T16:59:42.310Z,62.16
2023-09-30T17:02:11.295Z,62.11
2023-09-30T17:04:43.116Z,62.08
2023-09-30T17:07:09.751Z,61.96
2023-09-30T17:09:36.959Z,61.95
2023-09-30T17:12:04.502Z,62.13
2023-09-30T17:14:35.418Z,61.89
2023-09-30T17:17:03.900Z,62.15
2023-09-30T17:19:30.916Z,61.91
2023-09-30T17:21:57.593Z,62.01
2023-09-30T17:24:24.297Z,61.91
2023-09-30T17:26:51.006Z,61.98
2023-09-30T17:29:17.566Z,62.06
2023-09-30T17:31:44.318Z,61.84
2023-09-30T17:34:11.479Z,61.98
2023-09-30T17:36:38.225Z,62.04
2023-09-30T17:39:05.444Z,62.04
2023-09-30T17:41:33.754Z,62.01
2023-09-30T17:44:01.864Z,61.92
2023-09-30T17:46:29.151Z,62.08
2023-09-30T17:48:56.115Z,62.06
2023-09-30T17:51:22.845Z,62.28
2023-09-30T17:53:51.373Z,62.00
2023-09-30T17:56:19.026Z,61.93
2023-09-30T17:58:45.538Z,62.03
2023-09-30T18:01:15.413Z,61.98
2023-09-30T18:03:42.726Z,61.93
2023-09-30T18:06:11.616Z,61.97
2023-09-30T18:08:42.383Z,61.99
2023-09-30T18:11:09.692Z,61.88
2023-09-30T18:13:37.484Z,62.10
2023-09-30T18:16:04.346Z,61.87
2023-09-30T18:18:31.760Z,61.96
2023-09-30T18:20:58.387Z,61.94
2023-09-30T18:23:24.997Z,61.98
2023-09-30T18:25:51.727Z,62.04
2023-09-30T18:28:18.456Z,62.04
2023-09-30T18:30:46.275Z,62.11
2023-09-30T18:33:17.402Z,62.00
2023-09-30T18:35:45.120Z,61.93
2023-09-30T18:38:13.019Z,61.90
2023-09-30T18:40:39.633Z,62.14
2023-09-30T18:43:12.018Z,62.04
2023-09-30T18:45:40.179Z,62.00
2023-09-30T18:48:06.978Z,62.00
2023-09-30T18:50:46.495Z,62.14
2023-09-30T18:53:15.843Z,62.09
2023-09-30T18:55:45.187Z,62.21
2023-09-30T18:58:11.914Z,62.13
2023-09-30T19:00:40.644Z,62.10
2023-09-30T19:03:08.456Z,62.12
2023-09-30T19:05:40.672Z,62.09
2023-09-30T19:08:11.221Z,62.02
2023-09-30T19:10:42.583Z,62.08
2023-09-30T19:13:09.282Z,62.04
2023-09-30T19:15:35.972Z,62.18
2023-09-30T19:18:02.857Z,62.14
2023-09-30T19:20:29.453Z,62.17
2023-09-30T19:22:56.073Z,62.20
2023-09-30T19:25:24.649Z,62.18
2023-09-30T19:27:51.848Z,62.17
2023-09-30T19:30:18.680Z,62.21
2023-09-30T19:32:45.292Z,61.95
2023-09-30T19:35:12.883Z,62.15
2023-09-30T19:37:39.961Z,62.08
2023-09-30T19:40:07.623Z,62.12
2023-09-30T19:42:34.352Z,62.24
2023-09-30T19:45:01.439Z,62.36
2023-09-30T19:47:28.604Z,62.02
2023-09-30T19:49:55.896Z,62.11
2023-09-30T19:52:28.797Z,62.14
2023-09-30T19:54:56.195Z,62.23
2023-09-30T19:57:22.876Z,62.02
2023-09-30T19:59:49.391Z,62.24
2023-09-30T20:02:19.418Z,62.05
2023-09-30T20:04:46.083Z,62.15
2023-09-30T20:07:13.733Z,62.07
2023-09-30T20:09:44.081Z,62.13
2023-09-30T20:12:13.279Z,61.96
2023-09-30T20:14:41.999Z,62.15
2023-09-30T20:17:08.818Z,62.34
2023-09-30T20:19:38.143Z,62.12
2023-09-30T20:22:08.849Z,61.99
2023-09-30T20:24:36.148Z,62.06
2023-09-30T20:27:03.639Z,61.94
2023-09-30T20:29:30.731Z,62.08
2023-09-30T20:31:57.442Z,61.87
2023-09-30T20:34:24.268Z,62.00
2023-09-30T20:36:53.102Z,62.08
2023-09-30T20:39:21.706Z,62.05
2023-09-30T20:41:50.393Z,62.00
2023-09-30T20:44:17.083Z,61.93
2023-09-30T20:46:44.568Z,61.83
2023-09-30T20:49:12.936Z,61.96
2023-09-30T20:51:39.610Z,62.14
2023-09-30T20:54:09.112Z,62.12
2023-09-30T20:56:36.769Z,61.92
2023-09-30T20:59:04.133Z,62.03
2023-09-30T21:01:30.932Z,61.67
2023-09-30T21:03:57.780Z,61.90
2023-09-30T21:06:24.465Z,61.94
2023-09-30T21:08:52.860Z,61.93
2023-09-30T21:11:19.419Z,61.79
2023-09-30T21:13:47.385Z,61.90
2023-09-30T21:16:14.797Z,61.79
2023-09-30T21:18:44.454Z,62.08
2023-09-30T21:21:12.526Z,61.93
2023-09-30T21:23:39.544Z,61.89
2023-09-30T21:26:06.231Z,61.76
2023-09-30T21:28:32.857Z,61.92
2023-09-30T21:31:00.949Z,61.89
2023-09-30T21:33:29.797Z,61.67
2023-09-30T21:35:58.211Z,62.02
2023-09-30T21:38:25.423Z,61.77
2023-09-30T21:40:52.009Z,61.92
2023-09-30T21:43:18.739Z,61.95
2023-09-30T21:45:45.736Z,61.85
2023-09-30T21:48:12.365Z,61.70
2023-09-30T21:50:38.942Z,61.85
2023-09-30T21:53:06.549Z,61.83
2023-09-30T21:55:33.110Z,61.83
2023-09-30T21:58:00.576Z,61.87
2023-09-30T22:00:39.713Z,61.93
2023-09-30T22:03:08.200Z,61.58
2023-09-30T22:05:34.772Z,61.57
2023-09-30T22:08:01.245Z,61.98
2023-09-30T22:10:28.952Z,61.70
2023-09-30T22:12:55.557Z,61.84
2023-09-30T22:15:22.438Z,61.91
2023-09-30T22:17:49.312Z,61.65
2023-09-30T22:20:16.150Z,61.78
2023-09-30T22:22:43.348Z,61.80
2023-09-30T22:25:10.959Z,61.70
2023-09-30T22:27:41.840Z,61.82
2023-09-30T22:30:08.997Z,61.69
2023-09-30T22:32:35.606Z,61.83
2023-09-30T22:35:02.131Z,61.66
2023-09-30T22:37:28.784Z,61.58
2023-09-30T22:39:55.310Z,61.62
2023-09-30T22:42:21.953Z,61.69
2023-09-30T22:44:50.164Z,61.71
2023-09-30T22:47:16.765Z,61.66
2023-09-30T22:49:43.442Z,61.74
2023-09-30T22:52:10.036Z,61.66
2023-09-30T22:54:36.638Z,61.49
2023-09-30T22:57:03.196Z,61.61
2023-09-30T22:59:29.714Z,61.67
2023-09-30T23:01:57.287Z,61.61
2023-09-30T23:04:23.853Z,61.51
2023-09-30T23:06:50.613Z,61.55
2023-09-30T23:09:22.195Z,61.53
2023-09-30T23:11:50.473Z,61.62
2023-09-30T23:14:17.453Z,61.57
2023-09-30T23:16:44.157Z,61.64
2023-09-30T23:19:10.779Z,61.58
2023-09-30T23:21:37.780Z,61.54
2023-09-30T23:24:07.597Z,61.14
2023-09-30T23:26:38.733Z,61.48
2023-09-30T23:29:09.416Z,61.64
2023-09-30T23:31:38.300Z,61.57
2023-09-30T23:34:06.415Z,61.54
2023-09-30T23:36:33.177Z,61.46
2023-09-30T23:38:59.788Z,61.35
2023-09-30T23:41:29.022Z,61.33
2023-09-30T23:43:56.775Z,61.50
2023-09-30T23:46:25.752Z,61.61
2023-09-30T23:48:53.540Z,61.63
2023-09-30T23:51:20.057Z,61.48
2023-09-30T23:53:47.406Z,61.44
2023-09-30T23:56:17.363Z,61.58
2023-09-30T23:58:44.005Z,61.56
